sensor_id;sensor_type;location;lat;lon;timestamp;pressure;altitude;pressure_sealevel;temperature;humidity
63447;BME280;49577;49.872;6.190;2023-02-15T00:01:38;100871.14;;;-1.63;80.48
63447;BME280;49577;49.872;6.190;2023-02-15T00:04:04;100869.23;;;-1.66;80.40
63447;BME280;49577;49.872;6.190;2023-02-15T00:06:30;100866.13;;;-1.70;80.42
63447;BME280;49577;49.872;6.190;2023-02-15T00:08:55;100856.79;;;-1.81;79.84
63447;BME280;49577;49.872;6.190;2023-02-15T00:11:21;100850.75;;;-1.89;80.18
63447;BME280;49577;49.872;6.190;2023-02-15T00:14:05;100848.69;;;-1.90;80.83
63447;BME280;49577;49.872;6.190;2023-02-15T00:16:31;100842.66;;;-1.92;80.64
63447;BME280;49577;49.872;6.190;2023-02-15T00:18:56;100843.66;;;-1.96;80.57
63447;BME280;49577;49.872;6.190;2023-02-15T00:21:21;100840.03;;;-2.00;80.49
63447;BME280;49577;49.872;6.190;2023-02-15T00:23:47;100840.89;;;-1.99;81.03
63447;BME280;49577;49.872;6.190;2023-02-15T00:26:12;100839.56;;;-1.95;81.18
63447;BME280;49577;49.872;6.190;2023-02-15T00:28:37;100837.14;;;-1.98;80.57
63447;BME280;49577;49.872;6.190;2023-02-15T00:31:07;100836.90;;;-2.05;80.35
63447;BME280;49577;49.872;6.190;2023-02-15T00:33:33;100834.80;;;-2.12;80.22
63447;BME280;49577;49.872;6.190;2023-02-15T00:35:59;100826.71;;;-2.16;80.37
63447;BME280;49577;49.872;6.190;2023-02-15T00:38:26;100824.66;;;-2.18;80.73
63447;BME280;49577;49.872;6.190;2023-02-15T00:40:52;100825.52;;;-2.17;80.80
63447;BME280;49577;49.872;6.190;2023-02-15T00:43:18;100823.08;;;-2.20;80.65
63447;BME280;49577;49.872;6.190;2023-02-15T00:45:44;100822.23;;;-2.21;80.91
63447;BME280;49577;49.872;6.190;2023-02-15T00:48:10;100826.16;;;-2.21;81.12
63447;BME280;49577;49.872;6.190;2023-02-15T00:50:35;100822.42;;;-2.17;81.21
63447;BME280;49577;49.872;6.190;2023-02-15T00:53:00;100819.90;;;-2.12;81.39
63447;BME280;49577;49.872;6.190;2023-02-15T00:55:25;100820.98;;;-2.06;81.42
63447;BME280;49577;49.872;6.190;2023-02-15T00:57:50;100823.05;;;-2.03;80.80
63447;BME280;49577;49.872;6.190;2023-02-15T01:00:16;100821.83;;;-2.07;80.28
63447;BME280;49577;49.872;6.190;2023-02-15T01:02:41;100819.37;;;-2.14;80.11
63447;BME280;49577;49.872;6.190;2023-02-15T01:05:06;100823.23;;;-2.22;80.20
63447;BME280;49577;49.872;6.190;2023-02-15T01:07:32;100822.64;;;-2.32;80.26
63447;BME280;49577;49.872;6.190;2023-02-15T01:09:57;100821.25;;;-2.35;80.88
63447;BME280;49577;49.872;6.190;2023-02-15T01:12:22;100820.08;;;-2.32;81.32
63447;BME280;49577;49.872;6.190;2023-02-15T01:14:47;100822.35;;;-2.26;81.61
63447;BME280;49577;49.872;6.190;2023-02-15T01:17:12;100821.38;;;-2.20;81.64
63447;BME280;49577;49.872;6.190;2023-02-15T01:19:38;100817.13;;;-2.16;81.25
63447;BME280;49577;49.872;6.190;2023-02-15T01:22:03;100814.89;;;-2.19;80.67
63447;BME280;49577;49.872;6.190;2023-02-15T01:24:28;100813.81;;;-2.23;80.60
63447;BME280;49577;49.872;6.190;2023-02-15T01:26:54;100813.59;;;-2.28;80.62
63447;BME280;49577;49.872;6.190;2023-02-15T01:29:19;100814.60;;;-2.32;80.61
63447;BME280;49577;49.872;6.190;2023-02-15T01:31:44;100811.83;;;-2.36;80.77
63447;BME280;49577;49.872;6.190;2023-02-15T01:34:09;100808.38;;;-2.40;80.91
63447;BME280;49577;49.872;6.190;2023-02-15T01:36:34;100806.62;;;-2.44;81.03
63447;BME280;49577;49.872;6.190;2023-02-15T01:39:00;100803.19;;;-2.44;81.31
63447;BME280;49577;49.872;6.190;2023-02-15T01:41:25;100798.02;;;-2.48;80.85
63447;BME280;49577;49.872;6.190;2023-02-15T01:43:57;100793.48;;;-2.58;80.78
63447;BME280;49577;49.872;6.190;2023-02-15T01:46:24;100793.95;;;-2.63;81.00
63447;BME280;49577;49.872;6.190;2023-02-15T01:48:56;100797.55;;;-2.63;81.73
63447;BME280;49577;49.872;6.190;2023-02-15T01:51:25;100790.75;;;-2.57;81.96
63447;BME280;49577;49.872;6.190;2023-02-15T01:53:52;100794.90;;;-2.54;81.72
63447;BME280;49577;49.872;6.190;2023-02-15T01:56:20;100793.15;;;-2.57;81.10
63447;BME280;49577;49.872;6.190;2023-02-15T01:58:46;100787.98;;;-2.61;81.11
63447;BME280;49577;49.872;6.190;2023-02-15T02:01:12;100782.15;;;-2.62;81.31
63447;BME280;49577;49.872;6.190;2023-02-15T02:06:23;100778.90;;;-2.62;81.62
63447;BME280;49577;49.872;6.190;2023-02-15T02:08:48;100778.45;;;-2.56;81.86
63447;BME280;49577;49.872;6.190;2023-02-15T02:11:14;100775.20;;;-2.54;81.44
63447;BME280;49577;49.872;6.190;2023-02-15T02:13:40;100773.34;;;-2.54;81.21
63447;BME280;49577;49.872;6.190;2023-02-15T02:16:16;100766.66;;;-2.54;81.11
63447;BME280;49577;49.872;6.190;2023-02-15T02:28:46;100760.18;;;-2.51;81.68
63447;BME280;49577;49.872;6.190;2023-02-15T02:39:04;100754.45;;;-2.40;81.43
63447;BME280;49577;49.872;6.190;2023-02-15T02:41:35;100748.33;;;-2.36;81.27
63447;BME280;49577;49.872;6.190;2023-02-15T02:46:30;100751.27;;;-2.34;80.77
63447;BME280;49577;49.872;6.190;2023-02-15T02:48:57;100749.21;;;-2.33;81.31
63447;BME280;49577;49.872;6.190;2023-02-15T02:51:22;100750.33;;;-2.22;81.96
63447;BME280;49577;49.872;6.190;2023-02-15T02:53:50;100747.98;;;-2.14;81.64
63447;BME280;49577;49.872;6.190;2023-02-15T02:59:01;100742.52;;;-2.12;81.70
63447;BME280;49577;49.872;6.190;2023-02-15T03:01:43;100740.16;;;-2.05;82.04
63447;BME280;49577;49.872;6.190;2023-02-15T03:04:14;100741.23;;;-2.01;82.19
63447;BME280;49577;49.872;6.190;2023-02-15T03:06:41;100744.34;;;-1.96;82.60
63447;BME280;49577;49.872;6.190;2023-02-15T03:09:22;100740.94;;;-1.92;82.86
63447;BME280;49577;49.872;6.190;2023-02-15T03:11:49;100734.28;;;-1.89;82.83
63447;BME280;49577;49.872;6.190;2023-02-15T03:14:15;100736.36;;;-1.87;82.75
63447;BME280;49577;49.872;6.190;2023-02-15T03:16:42;100736.88;;;-1.85;82.99
63447;BME280;49577;49.872;6.190;2023-02-15T03:19:10;100731.06;;;-1.82;83.15
63447;BME280;49577;49.872;6.190;2023-02-15T03:21:42;100735.21;;;-1.76;83.40
63447;BME280;49577;49.872;6.190;2023-02-15T03:24:22;100736.45;;;-1.68;83.39
63447;BME280;49577;49.872;6.190;2023-02-15T03:26:49;100732.52;;;-1.64;83.67
63447;BME280;49577;49.872;6.190;2023-02-15T03:29:16;100731.70;;;-1.58;83.78
63447;BME280;49577;49.872;6.190;2023-02-15T03:31:43;100729.33;;;-1.54;83.52
63447;BME280;49577;49.872;6.190;2023-02-15T03:34:10;100731.04;;;-1.56;83.11
63447;BME280;49577;49.872;6.190;2023-02-15T03:44:29;100740.39;;;-1.69;83.01
63447;BME280;49577;49.872;6.190;2023-02-15T03:49:21;100732.64;;;-1.76;82.97
63447;BME280;49577;49.872;6.190;2023-02-15T03:51:48;100732.64;;;-1.79;83.13
63447;BME280;49577;49.872;6.190;2023-02-15T03:54:17;100728.00;;;-1.79;83.30
63447;BME280;49577;49.872;6.190;2023-02-15T03:57:03;100723.52;;;-1.81;83.58
63447;BME280;49577;49.872;6.190;2023-02-15T03:59:47;100725.95;;;-1.76;84.09
63447;BME280;49577;49.872;6.190;2023-02-15T04:02:34;100727.36;;;-1.69;84.39
63447;BME280;49577;49.872;6.190;2023-02-15T04:05:03;100728.59;;;-1.62;84.51
63447;BME280;49577;49.872;6.190;2023-02-15T04:07:28;100725.19;;;-1.57;84.10
63447;BME280;49577;49.872;6.190;2023-02-15T04:09:53;100722.97;;;-1.59;83.66
63447;BME280;49577;49.872;6.190;2023-02-15T04:12:37;100722.95;;;-1.60;83.63
63447;BME280;49577;49.872;6.190;2023-02-15T04:15:02;100727.77;;;-1.61;83.83
63447;BME280;49577;49.872;6.190;2023-02-15T04:17:46;100729.49;;;-1.55;84.14
63447;BME280;49577;49.872;6.190;2023-02-15T04:20:11;100728.13;;;-1.56;83.65
63447;BME280;49577;49.872;6.190;2023-02-15T04:22:55;100724.50;;;-1.58;83.89
63447;BME280;49577;49.872;6.190;2023-02-15T04:25:39;100726.92;;;-1.55;84.29
63447;BME280;49577;49.872;6.190;2023-02-15T04:28:04;100723.49;;;-1.54;83.90
63447;BME280;49577;49.872;6.190;2023-02-15T04:30:30;100726.56;;;-1.60;83.54
63447;BME280;49577;49.872;6.190;2023-02-15T04:32:55;100723.45;;;-1.62;83.50
63447;BME280;49577;49.872;6.190;2023-02-15T04:35:22;100720.88;;;-1.62;83.90
63447;BME280;49577;49.872;6.190;2023-02-15T04:37:47;100718.51;;;-1.58;84.51
63447;BME280;49577;49.872;6.190;2023-02-15T04:40:13;100718.36;;;-1.54;84.56
63447;BME280;49577;49.872;6.190;2023-02-15T04:42:38;100722.98;;;-1.51;84.74
63447;BME280;49577;49.872;6.190;2023-02-15T04:45:04;100730.02;;;-1.51;84.56
63447;BME280;49577;49.872;6.190;2023-02-15T04:47:29;100733.09;;;-1.53;84.45
63447;BME280;49577;49.872;6.190;2023-02-15T04:49:54;100731.91;;;-1.49;85.00
63447;BME280;49577;49.872;6.190;2023-02-15T04:52:20;100732.97;;;-1.44;85.12
63447;BME280;49577;49.872;6.190;2023-02-15T04:54:45;100740.55;;;-1.36;85.56
63447;BME280;49577;49.872;6.190;2023-02-15T04:57:11;100743.13;;;-1.29;85.35
63447;BME280;49577;49.872;6.190;2023-02-15T04:59:36;100739.02;;;-1.26;84.98
63447;BME280;49577;49.872;6.190;2023-02-15T05:02:01;100737.51;;;-1.20;85.06
63447;BME280;49577;49.872;6.190;2023-02-15T05:04:27;100739.40;;;-1.18;84.64
63447;BME280;49577;49.872;6.190;2023-02-15T05:06:52;100734.59;;;-1.18;84.52
63447;BME280;49577;49.872;6.190;2023-02-15T05:09:17;100732.37;;;-1.16;84.54
63447;BME280;49577;49.872;6.190;2023-02-15T05:11:43;100729.13;;;-1.15;84.61
63447;BME280;49577;49.872;6.190;2023-02-15T05:14:08;100729.98;;;-1.14;84.27
63447;BME280;49577;49.872;6.190;2023-02-15T05:16:33;100730.51;;;-1.12;84.69
63447;BME280;49577;49.872;6.190;2023-02-15T05:18:59;100727.94;;;-1.11;84.30
63447;BME280;49577;49.872;6.190;2023-02-15T05:21:24;100727.77;;;-1.11;84.32
63447;BME280;49577;49.872;6.190;2023-02-15T05:23:49;100732.23;;;-1.09;84.37
63447;BME280;49577;49.872;6.190;2023-02-15T05:26:19;100738.75;;;-1.04;84.70
63447;BME280;49577;49.872;6.190;2023-02-15T05:29:03;100738.24;;;-0.98;84.53
63447;BME280;49577;49.872;6.190;2023-02-15T05:31:28;100733.27;;;-0.94;84.45
63447;BME280;49577;49.872;6.190;2023-02-15T05:33:55;100733.80;;;-0.92;84.21
63447;BME280;49577;49.872;6.190;2023-02-15T05:36:20;100732.61;;;-0.91;84.16
63447;BME280;49577;49.872;6.190;2023-02-15T05:38:45;100731.26;;;-0.89;84.31
63447;BME280;49577;49.872;6.190;2023-02-15T05:41:11;100729.52;;;-0.93;83.44
63447;BME280;49577;49.872;6.190;2023-02-15T05:43:37;100728.30;;;-1.01;83.04
63447;BME280;49577;49.872;6.190;2023-02-15T05:46:03;100728.80;;;-1.08;83.07
63447;BME280;49577;49.872;6.190;2023-02-15T05:48:28;100728.27;;;-1.14;83.10
63447;BME280;49577;49.872;6.190;2023-02-15T05:51:04;100733.23;;;-1.20;83.19
63447;BME280;49577;49.872;6.190;2023-02-15T05:53:30;100733.55;;;-1.23;83.41
63447;BME280;49577;49.872;6.190;2023-02-15T05:55:56;100734.57;;;-1.26;83.37
63447;BME280;49577;49.872;6.190;2023-02-15T05:58:27;100733.88;;;-1.28;83.55
63447;BME280;49577;49.872;6.190;2023-02-15T06:00:53;100732.01;;;-1.28;83.61
63447;BME280;49577;49.872;6.190;2023-02-15T06:03:18;100736.63;;;-1.29;83.41
63447;BME280;49577;49.872;6.190;2023-02-15T06:05:43;100734.89;;;-1.30;83.34
63447;BME280;49577;49.872;6.190;2023-02-15T06:08:09;100740.57;;;-1.28;83.66
63447;BME280;49577;49.872;6.190;2023-02-15T06:10:34;100738.85;;;-1.26;83.47
63447;BME280;49577;49.872;6.190;2023-02-15T06:12:59;100736.12;;;-1.29;83.21
63447;BME280;49577;49.872;6.190;2023-02-15T06:15:24;100738.83;;;-1.30;83.37
63447;BME280;49577;49.872;6.190;2023-02-15T06:17:49;100741.92;;;-1.33;83.38
63447;BME280;49577;49.872;6.190;2023-02-15T06:20:15;100741.41;;;-1.33;83.41
63447;BME280;49577;49.872;6.190;2023-02-15T06:22:40;100741.57;;;-1.36;83.29
63447;BME280;49577;49.872;6.190;2023-02-15T06:25:05;100742.42;;;-1.38;83.14
63447;BME280;49577;49.872;6.190;2023-02-15T06:27:30;100741.04;;;-1.41;83.27
63447;BME280;49577;49.872;6.190;2023-02-15T06:29:56;100740.16;;;-1.42;83.30
63447;BME280;49577;49.872;6.190;2023-02-15T06:32:21;100741.36;;;-1.45;83.16
63447;BME280;49577;49.872;6.190;2023-02-15T06:34:46;100739.27;;;-1.49;83.20
63447;BME280;49577;49.872;6.190;2023-02-15T06:37:11;100736.38;;;-1.50;83.31
63447;BME280;49577;49.872;6.190;2023-02-15T06:39:36;100736.37;;;-1.50;83.48
63447;BME280;49577;49.872;6.190;2023-02-15T06:42:02;100733.09;;;-1.53;83.33
63447;BME280;49577;49.872;6.190;2023-02-15T06:44:27;100732.92;;;-1.55;83.28
63447;BME280;49577;49.872;6.190;2023-02-15T06:46:53;100735.64;;;-1.57;83.18
63447;BME280;49577;49.872;6.190;2023-02-15T06:49:18;100737.02;;;-1.60;83.15
63447;BME280;49577;49.872;6.190;2023-02-15T06:51:43;100738.53;;;-1.62;83.12
63447;BME280;49577;49.872;6.190;2023-02-15T06:54:08;100735.10;;;-1.64;82.92
63447;BME280;49577;49.872;6.190;2023-02-15T06:56:33;100736.64;;;-1.65;83.12
63447;BME280;49577;49.872;6.190;2023-02-15T06:58:59;100729.95;;;-1.65;82.89
63447;BME280;49577;49.872;6.190;2023-02-15T07:01:24;100729.09;;;-1.67;82.74
63447;BME280;49577;49.872;6.190;2023-02-15T07:03:49;100729.25;;;-1.67;82.75
63447;BME280;49577;49.872;6.190;2023-02-15T07:06:14;100726.51;;;-1.71;82.42
63447;BME280;49577;49.872;6.190;2023-02-15T07:08:40;100720.81;;;-1.79;82.42
63447;BME280;49577;49.872;6.190;2023-02-15T07:11:05;100727.29;;;-1.84;82.43
63447;BME280;49577;49.872;6.190;2023-02-15T07:13:50;100729.66;;;-1.91;82.58
63447;BME280;49577;49.872;6.190;2023-02-15T07:16:17;100729.97;;;-1.94;82.90
63447;BME280;49577;49.872;6.190;2023-02-15T07:18:42;100724.14;;;-1.97;83.11
63447;BME280;49577;49.872;6.190;2023-02-15T07:21:07;100721.19;;;-2.00;83.23
63447;BME280;49577;49.872;6.190;2023-02-15T07:23:34;100722.77;;;-1.97;83.54
63447;BME280;49577;49.872;6.190;2023-02-15T07:25:59;100719.00;;;-1.94;83.54
63447;BME280;49577;49.872;6.190;2023-02-15T07:28:25;100720.75;;;-1.89;83.87
63447;BME280;49577;49.872;6.190;2023-02-15T07:30:51;100715.30;;;-1.81;84.19
63447;BME280;49577;49.872;6.190;2023-02-15T07:33:16;100717.91;;;-1.74;84.06
63447;BME280;49577;49.872;6.190;2023-02-15T07:35:51;100725.66;;;-1.67;84.05
63447;BME280;49577;49.872;6.190;2023-02-15T07:38:17;100721.60;;;-1.58;84.21
63447;BME280;49577;49.872;6.190;2023-02-15T07:40:43;100721.28;;;-1.51;84.07
63447;BME280;49577;49.872;6.190;2023-02-15T07:43:08;100717.04;;;-1.40;84.38
63447;BME280;49577;49.872;6.190;2023-02-15T07:45:33;100709.88;;;-1.33;83.77
63447;BME280;49577;49.872;6.190;2023-02-15T07:48:00;100708.66;;;-1.36;83.06
63447;BME280;49577;49.872;6.190;2023-02-15T07:50:25;100704.54;;;-1.38;83.10
63447;BME280;49577;49.872;6.190;2023-02-15T07:52:50;100700.27;;;-1.35;83.42
63447;BME280;49577;49.872;6.190;2023-02-15T07:55:16;100701.14;;;-1.31;83.88
63447;BME280;49577;49.872;6.190;2023-02-15T07:57:41;100701.14;;;-1.25;83.87
63447;BME280;49577;49.872;6.190;2023-02-15T08:00:07;100698.92;;;-1.21;83.81
63447;BME280;49577;49.872;6.190;2023-02-15T08:02:32;100698.59;;;-1.20;83.36
63447;BME280;49577;49.872;6.190;2023-02-15T08:04:59;100699.61;;;-1.17;83.19
63447;BME280;49577;49.872;6.190;2023-02-15T08:07:24;100701.85;;;-1.18;83.07
63447;BME280;49577;49.872;6.190;2023-02-15T08:09:49;100703.56;;;-1.21;82.86
63447;BME280;49577;49.872;6.190;2023-02-15T08:12:14;100703.38;;;-1.23;82.84
63447;BME280;49577;49.872;6.190;2023-02-15T08:14:39;100700.98;;;-1.22;83.07
63447;BME280;49577;49.872;6.190;2023-02-15T08:17:05;100697.21;;;-1.20;82.99
63447;BME280;49577;49.872;6.190;2023-02-15T08:19:30;100698.59;;;-1.20;82.79
63447;BME280;49577;49.872;6.190;2023-02-15T08:21:57;100697.74;;;-1.16;82.94
63447;BME280;49577;49.872;6.190;2023-02-15T08:24:24;100699.98;;;-1.10;83.15
63447;BME280;49577;49.872;6.190;2023-02-15T08:26:50;100705.33;;;-1.05;82.95
63447;BME280;49577;49.872;6.190;2023-02-15T08:29:16;100707.73;;;-0.98;83.13
63447;BME280;49577;49.872;6.190;2023-02-15T08:31:42;100712.20;;;-0.89;83.09
63447;BME280;49577;49.872;6.190;2023-02-15T08:34:08;100712.39;;;-0.82;82.84
63447;BME280;49577;49.872;6.190;2023-02-15T08:36:34;100713.59;;;-0.76;82.79
63447;BME280;49577;49.872;6.190;2023-02-15T08:39:00;100716.02;;;-0.67;82.80
63447;BME280;49577;49.872;6.190;2023-02-15T08:41:27;100714.11;;;-0.59;82.61
63447;BME280;49577;49.872;6.190;2023-02-15T08:43:53;100708.81;;;-0.55;82.29
63447;BME280;49577;49.872;6.190;2023-02-15T08:46:19;100709.65;;;-0.43;82.50
63447;BME280;49577;49.872;6.190;2023-02-15T08:48:45;100706.40;;;-0.34;82.44
63447;BME280;49577;49.872;6.190;2023-02-15T08:51:20;100702.43;;;-0.25;82.29
63447;BME280;49577;49.872;6.190;2023-02-15T08:53:47;100702.41;;;-0.13;82.18
63447;BME280;49577;49.872;6.190;2023-02-15T08:56:15;100708.77;;;-0.06;81.61
63447;BME280;49577;49.872;6.190;2023-02-15T08:58:41;100698.96;;;-0.00;81.12
63447;BME280;49577;49.872;6.190;2023-02-15T09:01:19;100697.23;;;0.03;81.00
63447;BME280;49577;49.872;6.190;2023-02-15T09:03:51;100698.60;;;0.07;81.03
63447;BME280;49577;49.872;6.190;2023-02-15T09:06:20;100694.12;;;0.09;80.76
63447;BME280;49577;49.872;6.190;2023-02-15T09:08:45;100701.34;;;0.11;80.63
63447;BME280;49577;49.872;6.190;2023-02-15T09:11:20;100697.21;;;0.08;80.33
63447;BME280;49577;49.872;6.190;2023-02-15T09:13:51;100688.45;;;0.12;80.62
63447;BME280;49577;49.872;6.190;2023-02-15T09:16:17;100691.84;;;0.24;80.80
63447;BME280;49577;49.872;6.190;2023-02-15T09:18:42;100690.27;;;0.35;80.65
63447;BME280;49577;49.872;6.190;2023-02-15T09:21:12;100687.82;;;0.45;80.55
63447;BME280;49577;49.872;6.190;2023-02-15T09:23:39;100692.08;;;0.56;80.52
63447;BME280;49577;49.872;6.190;2023-02-15T09:26:08;100690.95;;;0.73;80.59
63447;BME280;49577;49.872;6.190;2023-02-15T09:28:33;100691.76;;;0.82;79.75
63447;BME280;49577;49.872;6.190;2023-02-15T09:31:13;100691.72;;;0.89;80.01
63447;BME280;49577;49.872;6.190;2023-02-15T09:33:39;100696.95;;;1.06;79.77
63447;BME280;49577;49.872;6.190;2023-02-15T09:36:05;100701.55;;;1.14;79.06
63447;BME280;49577;49.872;6.190;2023-02-15T09:38:31;100701.31;;;1.21;78.69
63447;BME280;49577;49.872;6.190;2023-02-15T09:43:36;100696.90;;;1.38;78.21
63447;BME280;49577;49.872;6.190;2023-02-15T09:46:10;100694.78;;;1.43;77.98
63447;BME280;49577;49.872;6.190;2023-02-15T09:48:43;100699.23;;;1.48;78.11
63447;BME280;49577;49.872;6.190;2023-02-15T09:56:50;100708.13;;;1.53;77.62
63447;BME280;49577;49.872;6.190;2023-02-15T10:01:51;100706.70;;;1.60;77.30
63447;BME280;49577;49.872;6.190;2023-02-15T10:07:12;100702.69;;;1.85;77.32
63447;BME280;49577;49.872;6.190;2023-02-15T10:22:03;100693.11;;;2.43;76.29
63447;BME280;49577;49.872;6.190;2023-02-15T10:27:13;100691.59;;;2.67;76.17
63447;BME280;49577;49.872;6.190;2023-02-15T10:29:47;100692.51;;;2.75;76.01
63447;BME280;49577;49.872;6.190;2023-02-15T10:32:23;100694.48;;;2.83;75.55
63447;BME280;49577;49.872;6.190;2023-02-15T10:40:08;100683.55;;;2.99;75.12
63447;BME280;49577;49.872;6.190;2023-02-15T10:42:40;100681.34;;;3.09;74.88
63447;BME280;49577;49.872;6.190;2023-02-15T10:50:15;100682.04;;;3.31;74.27
63447;BME280;49577;49.872;6.190;2023-02-15T10:52:47;100679.55;;;3.35;74.30
63447;BME280;49577;49.872;6.190;2023-02-15T10:58:17;100679.70;;;3.57;74.30
63447;BME280;49577;49.872;6.190;2023-02-15T11:00:52;100676.23;;;3.68;73.85
63447;BME280;49577;49.872;6.190;2023-02-15T11:06:09;100668.58;;;3.99;73.32
63447;BME280;49577;49.872;6.190;2023-02-15T11:08:39;100666.27;;;4.29;73.04
63447;BME280;49577;49.872;6.190;2023-02-15T11:11:06;100669.96;;;4.67;72.54
63447;BME280;49577;49.872;6.190;2023-02-15T11:13:34;100665.45;;;5.07;71.69
63447;BME280;49577;49.872;6.190;2023-02-15T11:16:03;100660.47;;;5.41;70.68
63447;BME280;49577;49.872;6.190;2023-02-15T11:21:02;100652.41;;;5.58;69.70
63447;BME280;49577;49.872;6.190;2023-02-15T11:23:29;100651.80;;;5.62;69.19
63447;BME280;49577;49.872;6.190;2023-02-15T11:26:00;100648.80;;;5.64;69.18
63447;BME280;49577;49.872;6.190;2023-02-15T11:28:31;100651.58;;;5.91;69.17
63447;BME280;49577;49.872;6.190;2023-02-15T11:31:00;100646.39;;;6.28;68.70
63447;BME280;49577;49.872;6.190;2023-02-15T11:33:31;100643.86;;;6.79;67.56
63447;BME280;49577;49.872;6.190;2023-02-15T11:36:09;100645.65;;;7.00;65.73
63447;BME280;49577;49.872;6.190;2023-02-15T11:38:37;100643.02;;;7.22;65.39
63447;BME280;49577;49.872;6.190;2023-02-15T11:41:15;100637.27;;;7.79;65.19
63447;BME280;49577;49.872;6.190;2023-02-15T11:46:10;100632.66;;;10.06;61.50
63447;BME280;49577;49.872;6.190;2023-02-15T11:48:36;100620.73;;;11.16;59.38
63447;BME280;49577;49.872;6.190;2023-02-15T11:51:01;100617.00;;;12.14;57.12
63447;BME280;49577;49.872;6.190;2023-02-15T11:53:28;100616.36;;;12.96;55.18
63447;BME280;49577;49.872;6.190;2023-02-15T11:55:56;100611.76;;;13.61;53.30
63447;BME280;49577;49.872;6.190;2023-02-15T12:00:50;100605.45;;;14.61;50.36
63447;BME280;49577;49.872;6.190;2023-02-15T12:03:21;100596.16;;;14.77;49.46
63447;BME280;49577;49.872;6.190;2023-02-15T12:05:49;100594.56;;;15.05;48.04
63447;BME280;49577;49.872;6.190;2023-02-15T12:08:16;100588.46;;;15.24;48.00
63447;BME280;49577;49.872;6.190;2023-02-15T12:10:58;100583.84;;;15.67;46.70
63447;BME280;49577;49.872;6.190;2023-02-15T12:13:26;100577.78;;;15.63;45.18
63447;BME280;49577;49.872;6.190;2023-02-15T12:15:52;100578.94;;;15.49;44.92
63447;BME280;49577;49.872;6.190;2023-02-15T12:18:26;100576.11;;;15.44;44.74
63447;BME280;49577;49.872;6.190;2023-02-15T12:20:59;100576.66;;;15.82;45.23
63447;BME280;49577;49.872;6.190;2023-02-15T12:23:27;100571.05;;;16.30;44.68
63447;BME280;49577;49.872;6.190;2023-02-15T12:25:53;100563.89;;;16.73;43.95
63447;BME280;49577;49.872;6.190;2023-02-15T12:28:35;100563.19;;;16.90;43.13
63447;BME280;49577;49.872;6.190;2023-02-15T12:31:04;100556.59;;;17.12;42.71
63447;BME280;49577;49.872;6.190;2023-02-15T12:33:34;100549.55;;;17.26;41.79
63447;BME280;49577;49.872;6.190;2023-02-15T12:38:26;100544.61;;;16.64;40.82
63447;BME280;49577;49.872;6.190;2023-02-15T12:43:34;100537.45;;;15.96;41.64
63447;BME280;49577;49.872;6.190;2023-02-15T12:48:43;100529.65;;;15.62;41.67
63447;BME280;49577;49.872;6.190;2023-02-15T12:51:08;100519.23;;;15.54;42.41
63447;BME280;49577;49.872;6.190;2023-02-15T12:53:35;100516.98;;;15.76;42.29
63447;BME280;49577;49.872;6.190;2023-02-15T12:56:01;100510.89;;;15.68;41.61
63447;BME280;49577;49.872;6.190;2023-02-15T12:58:28;100512.63;;;15.48;42.21
63447;BME280;49577;49.872;6.190;2023-02-15T13:01:14;100511.89;;;15.35;41.89
63447;BME280;49577;49.872;6.190;2023-02-15T13:03:55;100508.05;;;15.09;41.83
63447;BME280;49577;49.872;6.190;2023-02-15T13:06:21;100509.55;;;15.07;42.11
63447;BME280;49577;49.872;6.190;2023-02-15T13:08:47;100512.12;;;15.16;42.06
63447;BME280;49577;49.872;6.190;2023-02-15T13:11:15;100514.64;;;15.16;42.02
63447;BME280;49577;49.872;6.190;2023-02-15T13:13:53;100515.61;;;15.09;42.63
63447;BME280;49577;49.872;6.190;2023-02-15T13:16:20;100515.84;;;15.39;42.67
63447;BME280;49577;49.872;6.190;2023-02-15T13:18:49;100509.45;;;15.66;42.47
63447;BME280;49577;49.872;6.190;2023-02-15T13:21:20;100505.31;;;15.77;42.08
63447;BME280;49577;49.872;6.190;2023-02-15T13:26:35;100497.79;;;14.97;42.46
63447;BME280;49577;49.872;6.190;2023-02-15T13:29:05;100496.45;;;14.42;43.15
63447;BME280;49577;49.872;6.190;2023-02-15T13:31:33;100491.64;;;13.90;43.65
63447;BME280;49577;49.872;6.190;2023-02-15T13:34:12;100485.39;;;13.37;44.24
63447;BME280;49577;49.872;6.190;2023-02-15T13:42:01;100476.80;;;11.80;47.14
63447;BME280;49577;49.872;6.190;2023-02-15T13:54:31;100464.52;;;11.05;49.35
63447;BME280;49577;49.872;6.190;2023-02-15T14:01:58;100451.91;;;10.73;50.15
63447;BME280;49577;49.872;6.190;2023-02-15T14:22:08;100454.29;;;10.39;52.15
63447;BME280;49577;49.872;6.190;2023-02-15T14:24:53;100458.70;;;10.31;52.51
63447;BME280;49577;49.872;6.190;2023-02-15T14:30:20;100462.90;;;10.20;52.85
63447;BME280;49577;49.872;6.190;2023-02-15T14:32:48;100463.75;;;10.12;53.27
63447;BME280;49577;49.872;6.190;2023-02-15T14:35:15;100458.88;;;10.12;53.90
63447;BME280;49577;49.872;6.190;2023-02-15T14:43:11;100459.98;;;9.96;54.26
63447;BME280;49577;49.872;6.190;2023-02-15T14:45:55;100456.73;;;9.95;54.15
63447;BME280;49577;49.872;6.190;2023-02-15T14:48:23;100457.89;;;9.93;53.83
63447;BME280;49577;49.872;6.190;2023-02-15T14:50:50;100460.19;;;9.88;53.94
63447;BME280;49577;49.872;6.190;2023-02-15T14:53:17;100463.77;;;9.85;54.12
63447;BME280;49577;49.872;6.190;2023-02-15T14:55:47;100465.95;;;9.81;54.39
63447;BME280;49577;49.872;6.190;2023-02-15T14:58:12;100461.79;;;9.72;55.03
63447;BME280;49577;49.872;6.190;2023-02-15T15:00:39;100459.56;;;9.68;55.17
63447;BME280;49577;49.872;6.190;2023-02-15T15:03:37;100456.87;;;9.61;55.13
63447;BME280;49577;49.872;6.190;2023-02-15T15:05:56;100458.98;;;9.57;55.53
63447;BME280;49577;49.872;6.190;2023-02-15T15:08:29;100458.02;;;9.56;55.82
63447;BME280;49577;49.872;6.190;2023-02-15T15:10:57;100454.30;;;9.53;55.45
63447;BME280;49577;49.872;6.190;2023-02-15T15:13:52;100457.75;;;9.50;55.61
63447;BME280;49577;49.872;6.190;2023-02-15T15:18:55;100446.48;;;9.44;56.22
63447;BME280;49577;49.872;6.190;2023-02-15T15:24:05;100444.14;;;9.34;56.78
63447;BME280;49577;49.872;6.190;2023-02-15T15:26:31;100442.59;;;9.30;56.58
63447;BME280;49577;49.872;6.190;2023-02-15T15:29:01;100441.86;;;9.22;56.70